Main page
METAR-TAF:

METAR-TAF

Airports :

Hong Kong, China

Hong Kong International Airport

latitude: 22-19N, longitude: 113-55E, elevation: 9 m

Current weather observation

The report was made 30 minutes ago, at 16:00 UTC
Wind 6 kt from the North/Northeast, varying between North/Northwest and East
Temperature 17°C
Humidity 63%
Pressure 1023 hPa
Visibility 10 km or more
Few clouds at a height of 4000 ft

METAR: VHHH 241600Z 02006KT 330V090 9999 FEW040 17/10 Q1023 NOSIG

Time: 00:30 (16:30 UTC)

Forecast

The report was made 5 hours and 30 minutes ago, at 11:00 UTC
Forecast valid from 24 at 12 UTC to 25 at 18 UTC
Wind 10 kt from the North/Northeast
Visibility: 9000 m
Few clouds at a height of 2500 ft
Scattered clouds at a height of 4000 ft

TAF: VHHH 241100Z 2412/2518 02010KT 9000 FEW025 SCT040 TX18/2506Z TN16/2423Z

Weather observations and forecasts of more than 4000 airports (METAR and TAF reports).

The available stations are represented by yellow and red dots on the map.

Hover mouse over dot to see the name of the station.

Then click to see weather observations and forecasts.

To change the map : click on the green buttons with a black cross to zoom in, on the green button with a dash to zoom out, or on the green arrows for adjacent maps.


METAR-TAF: